Time;durP1;ratioP1;P1;durP2;ratioP2;P2;SDS_P1;SDS_P2;PMS_P1;PMS_P2;Temp;Humidity;BMP_temperature;BMP_pressure;BME280_temperature;BME280_humidity;BME280_pressure;Samples;Min_cycle;Max_cycle;Signal;HPM_P1;HPM_P2
2023/01/16 00:00:47;;;;;;;2.55;1.20;;;;;;;6.71;70.47;99528.63;5046285;28;20119;-74
2023/01/16 00:03:13;;;;;;;2.42;1.35;;;;;;;6.71;70.44;99531.38;5052088;28;20024;-75
2023/01/16 00:05:38;;;;;;;4.85;1.40;;;;;;;6.72;70.19;99524.78;5048673;28;20115;-75
2023/01/16 00:08:03;;;;;;;1.45;1.00;;;;;;;6.68;70.51;99509.84;5051260;28;20045;-75
2023/01/16 00:10:28;;;;;;;3.83;1.27;;;;;;;6.71;69.60;99506.56;5049550;28;20029;-75
2023/01/16 00:12:54;;;;;;;2.67;1.30;;;;;;;6.67;70.21;99510.94;5043013;28;20037;-75
2023/01/16 00:15:19;;;;;;;3.33;1.48;;;;;;;6.62;70.43;99509.78;5044749;28;20125;-74
2023/01/16 00:17:44;;;;;;;3.13;1.13;;;;;;;6.63;70.48;99502.34;5037843;28;20026;-75
2023/01/16 00:20:10;;;;;;;3.30;1.52;;;;;;;6.60;70.00;99500.97;5050544;28;20017;-74
2023/01/16 00:22:35;;;;;;;3.35;1.30;;;;;;;6.61;70.32;99496.28;5052543;28;20048;-74
2023/01/16 00:25:01;;;;;;;3.10;1.60;;;;;;;6.59;70.21;99485.50;5052135;28;20028;-74
2023/01/16 00:27:26;;;;;;;4.90;1.90;;;;;;;6.60;70.97;99486.31;5050888;28;20400;-75
2023/01/16 00:29:51;;;;;;;4.57;1.70;;;;;;;6.57;70.26;99490.47;5051567;28;20029;-74
2023/01/16 00:32:17;;;;;;;6.70;1.75;;;;;;;6.57;70.71;99490.47;5052280;28;20112;-75
2023/01/16 00:34:42;;;;;;;3.97;1.58;;;;;;;6.54;70.13;99482.69;5051408;28;20021;-75
2023/01/16 00:37:07;;;;;;;7.80;1.70;;;;;;;6.48;70.77;99480.13;5043898;28;20045;-74
2023/01/16 00:39:32;;;;;;;7.47;2.00;;;;;;;6.48;70.47;99480.97;5051162;28;20035;-74
2023/01/16 00:41:58;;;;;;;4.72;1.88;;;;;;;6.47;71.23;99484.00;5050390;28;20064;-74
2023/01/16 00:44:23;;;;;;;5.82;2.15;;;;;;;6.41;71.08;99472.09;5050846;28;20055;-74
2023/01/16 00:46:49;;;;;;;6.22;2.20;;;;;;;6.45;70.70;99476.00;5051604;28;20114;-74
2023/01/16 00:49:14;;;;;;;6.30;2.35;;;;;;;6.43;70.76;99474.59;5051197;28;20381;-74
2023/01/16 00:51:39;;;;;;;3.85;1.73;;;;;;;6.42;70.98;99459.97;5049795;28;20538;-75
2023/01/16 00:54:05;;;;;;;6.90;2.35;;;;;;;6.38;70.80;99464.34;5047184;28;20029;-74
2023/01/16 00:56:30;;;;;;;4.35;1.88;;;;;;;6.42;70.65;99462.72;5051103;28;20378;-74
2023/01/16 00:58:55;;;;;;;5.38;1.77;;;;;;;6.43;70.98;99450.59;5047183;28;20139;-74
2023/01/16 01:01:21;;;;;;;7.43;1.88;;;;;;;6.38;70.34;99439.53;5032741;28;20100;-74
2023/01/16 01:03:46;;;;;;;5.63;2.25;;;;;;;6.41;71.23;99438.19;5031911;28;20385;-75
2023/01/16 01:06:11;;;;;;;5.88;1.77;;;;;;;6.39;71.24;99432.94;5033057;28;20504;-74
2023/01/16 01:08:36;;;;;;;7.47;2.00;;;;;;;6.37;70.45;99424.94;5050503;28;20115;-75
2023/01/16 01:11:10;;;;;;;5.82;2.28;;;;;;;6.37;70.73;99421.34;5053147;28;20486;-75
2023/01/16 01:13:37;;;;;;;7.63;2.20;;;;;;;6.30;70.31;99421.56;5052496;28;20025;-74
2023/01/16 01:16:02;;;;;;;6.38;2.10;;;;;;;6.27;70.32;99405.53;5046004;28;20029;-75
2023/01/16 01:18:27;;;;;;;5.90;2.10;;;;;;;6.28;71.17;99417.38;5054158;28;20028;-75
2023/01/16 01:20:53;;;;;;;5.53;1.92;;;;;;;6.22;70.13;99422.03;5053491;28;20025;-75
2023/01/16 01:23:18;;;;;;;5.82;2.20;;;;;;;6.22;70.62;99411.00;5052730;28;20084;-74
2023/01/16 01:25:43;;;;;;;4.93;1.85;;;;;;;6.27;70.31;99399.19;5052750;28;20033;-74
2023/01/16 01:28:08;;;;;;;8.82;2.50;;;;;;;6.25;70.68;99393.94;5049792;28;20469;-74
2023/01/16 01:30:34;;;;;;;4.43;2.15;;;;;;;6.23;70.56;99392.53;5033157;28;20040;-75
2023/01/16 01:32:59;;;;;;;6.15;2.33;;;;;;;6.21;70.41;99386.44;5048772;28;20053;-75
2023/01/16 01:35:25;;;;;;;6.80;2.35;;;;;;;6.18;70.20;99382.31;5053603;28;20032;-75
2023/01/16 01:37:50;;;;;;;7.25;2.20;;;;;;;6.17;70.12;99375.16;5052688;28;20048;-75
2023/01/16 01:40:16;;;;;;;5.22;1.90;;;;;;;6.19;70.00;99372.13;5053241;28;20112;-75
2023/01/16 01:42:46;;;;;;;7.57;1.95;;;;;;;6.14;70.30;99367.38;5051693;28;20021;-75
2023/01/16 01:45:15;;;;;;;4.05;1.67;;;;;;;6.15;70.70;99358.84;5051591;28;20534;-75
2023/01/16 01:47:48;;;;;;;5.35;1.67;;;;;;;6.10;69.86;99346.97;5049746;28;20036;-75
2023/01/16 01:50:26;;;;;;;6.32;2.03;;;;;;;6.05;70.30;99339.50;5049053;28;20025;-75
2023/01/16 01:52:53;;;;;;;5.35;1.80;;;;;;;6.03;70.60;99335.31;5051355;28;20025;-75
2023/01/16 01:55:21;;;;;;;8.80;2.30;;;;;;;6.02;70.34;99328.16;5052024;28;20029;-75
2023/01/16 01:57:52;;;;;;;6.53;1.83;;;;;;;6.00;69.69;99325.66;5050857;28;20040;-76
2023/01/16 02:00:20;;;;;;;6.80;2.03;;;;;;;6.00;70.41;99313.81;5051386;28;20033;-75
2023/01/16 02:02:55;;;;;;;6.07;1.80;;;;;;;5.99;70.02;99312.16;5047395;28;20037;-75
2023/01/16 02:05:28;;;;;;;7.05;2.40;;;;;;;5.96;70.16;99305.22;5050309;28;20035;-75
2023/01/16 02:07:56;;;;;;;6.03;2.00;;;;;;;5.97;69.56;99298.63;5052212;28;20075;-75
2023/01/16 02:10:45;;;;;;;3.60;1.58;;;;;;;6.01;70.53;99291.53;5051260;28;20571;-75
2023/01/16 02:13:11;;;;;;;3.53;1.60;;;;;;;6.04;69.68;99292.91;5049835;28;20101;-75
2023/01/16 02:19:14;;;;;;;6.00;1.80;;;;;;;5.98;70.19;99291.22;5049643;28;20561;-75
2023/01/16 02:21:46;;;;;;;5.82;1.65;;;;;;;6.03;69.83;99277.47;5041169;28;20039;-75
2023/01/16 02:24:27;;;;;;;7.93;1.73;;;;;;;6.00;69.82;99272.50;5050841;28;20044;-74
2023/01/16 02:27:12;;;;;;;6.97;2.15;;;;;;;6.03;70.52;99266.47;5050349;28;20033;-75
2023/01/16 02:30:01;;;;;;;6.03;1.90;;;;;;;6.06;70.04;99263.19;5051060;28;20033;-75
2023/01/16 02:32:36;;;;;;;8.48;2.55;;;;;;;6.01;69.16;99247.47;5049806;28;20041;-75
2023/01/16 02:35:49;;;;;;;6.22;1.80;;;;;;;6.04;69.99;99235.06;5050966;28;20020;-75
2023/01/16 02:38:14;;;;;;;9.93;2.30;;;;;;;5.97;69.98;99228.94;5035824;28;20041;-75
2023/01/16 02:40:58;;;;;;;6.28;1.73;;;;;;;5.96;69.79;99219.84;5045983;28;20025;-75
2023/01/16 02:43:42;;;;;;;3.70;1.90;;;;;;;5.90;69.77;99201.63;5050674;28;20055;-75
2023/01/16 02:46:25;;;;;;;5.22;1.80;;;;;;;5.96;70.17;99197.81;5050190;28;20028;-75
2023/01/16 02:49:02;;;;;;;5.70;2.03;;;;;;;5.95;69.79;99185.16;5050720;28;20033;-75
2023/01/16 02:51:42;;;;;;;5.25;2.05;;;;;;;5.93;69.36;99176.31;5050713;28;20055;-75
2023/01/16 02:54:49;;;;;;;6.45;1.88;;;;;;;6.02;70.17;99173.94;5047310;28;20167;-75
2023/01/16 02:57:19;;;;;;;4.85;1.60;;;;;;;5.94;69.87;99160.66;4990107;28;20049;-75
2023/01/16 02:59:45;;;;;;;9.95;2.00;;;;;;;5.93;69.81;99162.53;5043754;28;20045;-75
2023/01/16 03:02:11;;;;;;;9.18;2.15;;;;;;;5.91;70.09;99151.78;5057488;28;20024;-75
2023/01/16 03:04:36;;;;;;;7.28;2.20;;;;;;;5.89;69.73;99147.63;5061882;28;20156;-75
2023/01/16 03:07:20;;;;;;;5.03;1.80;;;;;;;5.89;69.84;99140.22;5061895;28;20035;-75
2023/01/16 03:10:12;;;;;;;5.07;1.90;;;;;;;5.89;69.76;99126.44;5053618;28;20377;-75
2023/01/16 03:12:53;;;;;;;5.65;1.60;;;;;;;5.88;69.80;99126.69;5049311;28;20476;-75
2023/01/16 03:15:22;;;;;;;6.75;1.80;;;;;;;5.87;69.68;99114.03;5054173;28;20032;-74
2023/01/16 03:18:25;;;;;;;4.75;1.60;;;;;;;5.89;70.05;99104.41;5053304;28;20067;-74
2023/01/16 03:21:19;;;;;;;5.85;1.83;;;;;;;5.88;69.59;99099.16;5055939;28;20075;-74
2023/01/16 03:24:00;;;;;;;6.82;1.80;;;;;;;5.86;69.54;99093.94;4999418;28;20064;-74
2023/01/16 03:26:38;;;;;;;3.50;1.77;;;;;;;5.84;69.88;99082.34;5054171;28;20041;-74
2023/01/16 03:29:16;;;;;;;4.18;1.63;;;;;;;5.83;70.29;99068.84;5049595;28;20396;-74
2023/01/16 03:32:08;;;;;;;5.70;2.00;;;;;;;5.87;69.81;99073.56;5050269;28;20111;-74
2023/01/16 03:34:45;;;;;;;7.30;1.75;;;;;;;5.80;69.75;99061.94;5053256;28;20045;-74
2023/01/16 03:37:22;;;;;;;5.38;1.60;;;;;;;5.81;70.18;99051.75;5053018;28;20057;-75
2023/01/16 03:39:55;;;;;;;6.20;1.90;;;;;;;5.85;69.99;99039.09;5053146;28;20025;-75
2023/01/16 03:42:34;;;;;;;3.83;1.70;;;;;;;5.87;70.38;99042.44;5052702;28;20067;-75
2023/01/16 03:45:07;;;;;;;6.20;1.50;;;;;;;5.85;70.52;99028.91;5042285;28;20036;-75
2023/01/16 03:47:41;;;;;;;7.28;1.70;;;;;;;5.90;69.92;99022.63;5038192;28;20472;-74
2023/01/16 03:50:11;;;;;;;4.03;1.90;;;;;;;5.87;70.37;99010.22;5053095;28;20037;-74
2023/01/16 03:52:48;;;;;;;4.72;1.90;;;;;;;5.82;70.42;98993.69;5052013;28;20029;-74
2023/01/16 03:55:30;;;;;;;6.10;1.92;;;;;;;5.86;70.37;98980.22;5052091;28;20117;-74
2023/01/16 03:58:03;;;;;;;7.55;1.88;;;;;;;5.85;70.56;98971.09;5052835;28;20470;-75
2023/01/16 04:00:36;;;;;;;8.60;2.10;;;;;;;5.84;70.48;98963.94;5053090;28;20785;-74
2023/01/16 04:03:13;;;;;;;6.43;2.30;;;;;;;5.86;70.25;98963.69;5044164;28;20044;-75
2023/01/16 04:06:04;;;;;;;7.18;2.10;;;;;;;5.88;70.53;98951.28;5052054;28;20032;-74
2023/01/16 04:08:37;;;;;;;4.78;1.92;;;;;;;5.88;70.63;98947.72;5053001;28;20059;-74
2023/01/16 04:11:04;;;;;;;5.13;2.38;;;;;;;5.87;70.91;98932.31;5053089;28;20028;-75
2023/01/16 04:13:36;;;;;;;5.32;1.95;;;;;;;5.91;70.42;98925.16;5050961;28;20033;-74
2023/01/16 04:16:06;;;;;;;7.87;1.93;;;;;;;5.89;70.19;98927.34;5052757;28;20468;-74
2023/01/16 04:18:34;;;;;;;6.53;2.13;;;;;;;5.88;70.23;98915.50;5051286;28;20033;-74
2023/01/16 04:21:02;;;;;;;8.45;2.20;;;;;;;5.88;70.89;98906.41;5047968;28;20025;-75
2023/01/16 04:23:27;;;;;;;7.07;2.03;;;;;;;5.93;70.67;98900.13;5052443;28;20025;-74
2023/01/16 04:25:53;;;;;;;8.93;2.35;;;;;;;5.91;71.08;98881.94;5051671;28;20051;-74
2023/01/16 04:28:18;;;;;;;5.68;1.83;;;;;;;5.94;70.62;98880.59;5052156;28;20527;-74
2023/01/16 04:30:43;;;;;;;4.38;1.80;;;;;;;5.95;70.97;98871.22;5052291;28;20045;-73
2023/01/16 04:33:12;;;;;;;5.40;1.95;;;;;;;5.97;70.74;98855.25;5049052;28;20048;-74
2023/01/16 04:35:37;;;;;;;6.82;1.88;;;;;;;5.95;70.27;98849.19;5051183;28;20087;-74
2023/01/16 04:38:02;;;;;;;8.00;2.03;;;;;;;5.96;70.58;98845.34;5048750;28;20378;-74
2023/01/16 04:40:27;;;;;;;7.20;2.03;;;;;;;5.97;70.25;98835.16;5050105;28;20021;-74
2023/01/16 04:42:54;;;;;;;7.05;2.10;;;;;;;5.97;71.05;98821.38;5052091;28;20025;-75
2023/01/16 04:45:20;;;;;;;8.57;2.20;;;;;;;5.97;70.68;98813.94;5051875;28;20078;-75
2023/01/16 04:47:50;;;;;;;6.22;2.10;;;;;;;5.96;70.83;98800.47;5049440;28;20037;-74
2023/01/16 04:50:17;;;;;;;5.75;2.10;;;;;;;5.98;70.66;98793.59;5051242;28;20029;-74
2023/01/16 04:52:42;;;;;;;3.85;1.70;;;;;;;5.97;70.42;98788.34;5052034;28;20020;-75
2023/01/16 04:55:09;;;;;;;8.05;1.73;;;;;;;5.97;70.78;98774.56;5044811;28;20051;-74
2023/01/16 04:57:34;;;;;;;6.20;2.10;;;;;;;5.98;70.52;98766.06;5050143;28;20040;-74
2023/01/16 04:59:59;;;;;;;4.55;1.90;;;;;;;5.97;71.12;98756.13;5051255;28;20033;-74
2023/01/16 05:02:28;;;;;;;8.98;1.63;;;;;;;5.96;70.96;98748.97;5048861;28;20036;-75
2023/01/16 05:04:53;;;;;;;8.55;2.35;;;;;;;5.94;71.03;98737.41;5051851;28;20082;-75
2023/01/16 05:07:18;;;;;;;9.65;2.15;;;;;;;5.95;70.62;98728.03;5051662;28;20025;-74
2023/01/16 05:09:44;;;;;;;3.25;1.85;;;;;;;5.96;70.96;98713.16;5051076;28;20044;-74
2023/01/16 05:12:11;;;;;;;4.28;1.95;;;;;;;5.98;71.28;98710.16;5038666;28;20852;-75
2023/01/16 05:14:37;;;;;;;7.55;2.10;;;;;;;5.96;71.39;98707.66;5030750;28;20032;-74
2023/01/16 05:17:02;;;;;;;5.20;1.80;;;;;;;5.99;71.28;98700.78;5034800;28;20025;-74
2023/01/16 05:19:28;;;;;;;5.47;1.70;;;;;;;5.98;71.47;98699.16;5032765;28;20106;-74
2023/01/16 05:21:53;;;;;;;5.50;2.00;;;;;;;6.01;71.12;98684.81;5042902;28;20498;-74
2023/01/16 05:24:18;;;;;;;8.70;2.15;;;;;;;5.99;71.23;98679.56;5051102;28;20417;-74
2023/01/16 05:26:46;;;;;;;8.60;2.10;;;;;;;6.01;71.25;98671.88;5050438;28;20036;-74
2023/01/16 05:29:12;;;;;;;4.63;1.60;;;;;;;6.02;71.27;98654.25;5046068;28;20112;-75
2023/01/16 05:31:37;;;;;;;8.57;2.20;;;;;;;6.01;71.93;98658.13;5050662;28;20127;-74
2023/01/16 05:34:02;;;;;;;4.05;1.77;;;;;;;6.02;71.07;98637.72;5050440;28;20384;-74
2023/01/16 05:36:28;;;;;;;5.47;2.08;;;;;;;5.99;71.26;98624.50;5050749;28;20036;-74
2023/01/16 05:38:54;;;;;;;5.13;1.60;;;;;;;5.96;71.06;98614.03;5051420;28;20033;-75
2023/01/16 05:41:19;;;;;;;4.70;1.73;;;;;;;5.95;71.21;98601.38;5049210;28;20112;-74
2023/01/16 05:43:45;;;;;;;4.07;2.15;;;;;;;5.95;71.59;98595.88;5050346;28;20115;-74
2023/01/16 05:46:10;;;;;;;7.03;2.20;;;;;;;5.96;71.64;98578.25;5050239;28;20067;-74
2023/01/16 05:48:36;;;;;;;8.07;1.90;;;;;;;5.97;70.94;98579.88;5036438;28;20045;-75
2023/01/16 05:51:02;;;;;;;6.22;1.83;;;;;;;5.91;71.06;98573.53;5038274;28;20021;-74
2023/01/16 05:53:30;;;;;;;4.15;1.90;;;;;;;5.93;71.48;98577.97;5049897;28;20028;-74
2023/01/16 05:55:56;;;;;;;4.13;1.85;;;;;;;5.94;71.31;98563.13;5049020;28;20074;-73
2023/01/16 05:58:21;;;;;;;7.43;2.17;;;;;;;5.96;71.69;98556.22;5048534;28;20473;-74
2023/01/16 06:00:46;;;;;;;8.52;1.88;;;;;;;5.96;71.98;98555.41;5042810;28;20037;-73
2023/01/16 06:03:12;;;;;;;5.30;1.75;;;;;;;5.96;71.39;98541.63;5048677;28;20035;-73
2023/01/16 06:05:37;;;;;;;8.32;2.10;;;;;;;5.94;71.26;98547.44;5049403;28;20032;-73
2023/01/16 06:08:03;;;;;;;4.97;1.88;;;;;;;5.90;71.48;98540.78;5050106;28;20041;-74
2023/01/16 06:10:28;;;;;;;3.65;1.63;;;;;;;5.90;71.91;98538.88;5047619;28;20029;-74
2023/01/16 06:12:54;;;;;;;5.70;1.90;;;;;;;5.91;71.93;98529.50;5048343;28;20476;-74
2023/01/16 06:15:21;;;;;;;3.55;1.55;;;;;;;5.90;72.08;98527.84;5048502;28;20040;-74
2023/01/16 06:17:47;;;;;;;5.00;1.50;;;;;;;5.93;72.44;98520.97;5043611;28;20112;-74
2023/01/16 06:20:12;;;;;;;3.80;1.90;;;;;;;5.94;72.36;98511.63;5046528;28;20116;-74
2023/01/16 06:22:38;;;;;;;5.18;1.70;;;;;;;5.94;72.35;98508.88;5047843;28;20028;-74
2023/01/16 06:25:04;;;;;;;5.13;1.60;;;;;;;5.94;72.89;98510.81;5048416;28;20033;-74
2023/01/16 06:27:29;;;;;;;4.53;1.90;;;;;;;5.93;73.08;98492.63;5046757;28;20403;-74
2023/01/16 06:29:55;;;;;;;4.47;1.67;;;;;;;5.89;73.49;98489.56;5048642;28;20033;-73
2023/01/16 06:32:20;;;;;;;3.35;1.38;;;;;;;5.86;73.42;98488.22;5047284;28;20041;-74
2023/01/16 06:34:45;;;;;;;6.88;1.80;;;;;;;5.80;73.57;98477.50;5041837;28;20026;-74
2023/01/16 06:37:11;;;;;;;4.78;1.77;;;;;;;5.80;73.85;98466.47;5040229;28;20397;-74
2023/01/16 06:39:36;;;;;;;7.15;1.80;;;;;;;5.77;74.00;98461.53;5033465;28;20377;-74
2023/01/16 06:42:04;;;;;;;4.05;1.40;;;;;;;5.76;74.47;98448.88;5043965;28;20025;-74
2023/01/16 06:44:30;;;;;;;5.53;1.67;;;;;;;5.74;75.01;98435.41;5050676;28;20037;-74
2023/01/16 06:46:55;;;;;;;5.70;1.52;;;;;;;5.76;74.44;98424.94;5050787;28;20589;-74
2023/01/16 06:49:20;;;;;;;6.45;1.70;;;;;;;5.74;74.10;98415.28;5053069;28;20029;-74
2023/01/16 06:51:46;;;;;;;3.90;1.50;;;;;;;5.74;74.85;98396.03;5052704;28;20029;-75
2023/01/16 06:54:11;;;;;;;4.50;1.65;;;;;;;5.64;74.52;98389.47;5050716;28;20047;-74
2023/01/16 06:56:37;;;;;;;5.40;1.67;;;;;;;5.64;74.86;98375.72;5052697;28;20418;-74
2023/01/16 06:59:03;;;;;;;4.95;1.80;;;;;;;5.66;75.06;98368.00;5048788;28;20484;-74
2023/01/16 07:01:28;;;;;;;1.40;1.20;;;;;;;5.65;74.63;98365.53;5048133;28;20058;-74
2023/01/16 07:03:54;;;;;;;2.22;1.30;;;;;;;5.64;74.98;98356.44;5051741;28;20473;-74
2023/01/16 07:06:19;;;;;;;2.78;1.30;;;;;;;5.65;74.81;98347.09;5052142;28;20107;-73
2023/01/16 07:08:45;;;;;;;3.30;1.30;;;;;;;5.61;74.84;98334.16;5049591;28;20509;-74
2023/01/16 07:11:10;;;;;;;4.40;1.75;;;;;;;5.64;74.99;98326.19;5052297;28;20070;-74
2023/01/16 07:13:35;;;;;;;3.17;1.73;;;;;;;5.66;75.18;98318.47;5051011;28;20029;-75
2023/01/16 07:24:20;;;;;;;3.97;1.55;;;;;;;5.64;75.06;98275.81;5053067;28;20538;-74
2023/01/16 07:26:49;;;;;;;3.10;1.20;;;;;;;5.62;75.25;98256.03;5044113;28;20527;-72
2023/01/16 07:29:14;;;;;;;3.33;1.40;;;;;;;5.61;75.70;98259.88;5048878;28;20051;-74
2023/01/16 07:31:40;;;;;;;1.90;1.40;;;;;;;5.63;75.70;98255.75;5048632;28;20029;-73
2023/01/16 07:34:06;;;;;;;4.47;1.33;;;;;;;5.63;75.68;98257.69;5047229;28;20025;-77
2023/01/16 07:36:31;;;;;;;4.15;1.70;;;;;;;5.61;75.51;98241.44;5049095;28;20712;-73
2023/01/16 07:38:56;;;;;;;2.92;1.27;;;;;;;5.65;75.54;98242.50;5041196;28;20117;-74
2023/01/16 07:41:22;;;;;;;2.17;1.15;;;;;;;5.61;75.86;98237.84;5045857;28;20060;-74
2023/01/16 07:43:47;;;;;;;2.22;1.27;;;;;;;5.63;76.00;98230.16;5047961;28;20036;-73
2023/01/16 07:46:13;;;;;;;4.00;1.38;;;;;;;5.66;75.79;98227.66;5046368;28;20778;-74
2023/01/16 07:48:38;;;;;;;2.97;1.58;;;;;;;5.66;76.17;98218.59;5045434;28;20033;-75
2023/01/16 07:51:04;;;;;;;4.53;1.45;;;;;;;5.66;75.30;98219.41;5042019;28;20056;-74
2023/01/16 07:53:30;;;;;;;4.50;1.45;;;;;;;5.63;75.84;98206.22;5045984;28;20503;-73
2023/01/16 07:55:59;;;;;;;6.60;1.70;;;;;;;5.63;76.09;98206.22;5045017;28;20025;-74
2023/01/16 07:58:25;;;;;;;1.67;1.58;;;;;;;5.61;75.87;98205.66;5044602;28;20079;-74
2023/01/16 08:00:54;;;;;;;4.82;1.40;;;;;;;5.59;76.00;98191.38;5043063;28;20034;-74
2023/01/16 08:03:20;;;;;;;2.60;1.40;;;;;;;5.55;76.14;98179.31;5045166;28;20029;-74
2023/01/16 08:05:45;;;;;;;6.10;1.63;;;;;;;5.51;76.86;98164.47;5050368;28;20039;-71
2023/01/16 08:08:12;;;;;;;4.10;1.38;;;;;;;5.53;76.61;98161.44;5049640;28;20025;-74
2023/01/16 08:10:38;;;;;;;3.22;1.52;;;;;;;5.55;76.93;98156.47;5041585;28;20029;-75
2023/01/16 08:13:03;;;;;;;2.13;1.23;;;;;;;5.54;76.34;98149.31;5047750;28;20024;-74
2023/01/16 08:15:29;;;;;;;5.15;1.70;;;;;;;5.50;76.89;98140.84;5052910;28;20037;-70
2023/01/16 08:17:54;;;;;;;2.67;1.15;;;;;;;5.51;76.44;98136.97;5038712;28;20025;-74
2023/01/16 08:20:19;;;;;;;4.10;1.55;;;;;;;5.53;76.48;98137.47;5037399;28;20560;-75
2023/01/16 08:22:47;;;;;;;3.88;1.45;;;;;;;5.57;76.46;98134.97;5047341;28;20585;-74
2023/01/16 08:25:13;;;;;;;3.28;1.42;;;;;;;5.63;77.42;98122.84;5049441;28;20029;-70
2023/01/16 08:27:39;;;;;;;4.07;1.65;;;;;;;5.61;76.87;98114.84;5052036;28;20060;-70
2023/01/16 08:30:06;;;;;;;4.30;1.27;;;;;;;5.65;76.35;98107.66;5048825;28;20060;-74
2023/01/16 08:32:31;;;;;;;4.18;1.30;;;;;;;5.65;77.00;98096.66;5049062;28;20037;-74
2023/01/16 08:34:56;;;;;;;5.05;1.50;;;;;;;5.66;76.71;98087.31;5049633;28;20025;-69
2023/01/16 08:37:21;;;;;;;5.07;1.20;;;;;;;5.66;77.10;98095.56;5044563;28;20052;-68
2023/01/16 08:39:47;;;;;;;3.85;1.20;;;;;;;5.69;76.50;98085.91;5033671;28;20037;-67
2023/01/16 08:53:08;;;;;;;2.42;1.35;;;;;;;5.73;77.46;98075.94;5048547;28;20098;-70
2023/01/16 08:55:33;;;;;;;2.22;1.30;;;;;;;5.75;76.90;98072.94;5047612;28;20456;-68
2023/01/16 08:57:59;;;;;;;2.88;1.45;;;;;;;5.74;76.68;98072.13;5039405;28;20773;-70
2023/01/16 09:00:26;;;;;;;3.65;1.42;;;;;;;5.75;77.16;98064.66;5047324;28;20062;-68
2023/01/16 09:02:52;;;;;;;3.85;1.50;;;;;;;5.75;77.02;98073.75;5050907;28;20043;-69
2023/01/16 09:05:18;;;;;;;3.85;1.50;;;;;;;5.74;77.28;98063.84;5049756;28;20025;-68
2023/01/16 09:07:43;;;;;;;1.85;1.30;;;;;;;5.76;76.44;98066.31;5045076;28;20056;-69
2023/01/16 09:10:09;;;;;;;1.77;1.00;;;;;;;5.72;77.02;98068.00;5049546;28;20029;-68
2023/01/16 09:15:18;;;;;;;2.13;1.40;;;;;;;5.72;76.93;98055.06;5045286;28;20086;-69
2023/01/16 09:17:43;;;;;;;1.35;1.13;;;;;;;5.72;76.72;98054.22;5042488;28;20533;-71
2023/01/16 09:20:09;;;;;;;2.15;1.50;;;;;;;5.66;75.84;98051.53;5044770;28;20357;-72
2023/01/16 09:22:35;;;;;;;2.13;1.10;;;;;;;5.60;76.49;98055.44;5044204;28;20487;-63
2023/01/16 09:25:00;;;;;;;1.20;1.08;;;;;;;5.60;76.74;98043.63;5047747;28;20045;-68
2023/01/16 09:27:26;;;;;;;2.08;1.20;;;;;;;5.60;76.70;98049.94;5048917;28;20021;-65
2023/01/16 09:29:51;;;;;;;1.75;1.17;;;;;;;5.63;76.99;98041.09;5045945;28;20021;-69
2023/01/16 09:32:18;;;;;;;2.15;1.05;;;;;;;5.67;76.49;98033.09;5049082;28;20033;-67
2023/01/16 09:34:44;;;;;;;2.13;1.08;;;;;;;5.68;76.76;98037.47;5047833;28;20388;-68
2023/01/16 09:37:09;;;;;;;1.15;1.05;;;;;;;5.71;75.98;98038.84;5048030;28;20048;-76
2023/01/16 09:39:35;;;;;;;1.80;1.20;;;;;;;5.78;77.70;98031.88;5045674;28;20029;-72
2023/01/16 09:45:08;;;;;;;1.73;1.02;;;;;;;5.88;75.83;98026.25;5042157;28;20380;-73
2023/01/16 09:47:35;;;;;;;1.65;1.00;;;;;;;5.87;76.37;98026.56;5040933;28;20504;-74
2023/01/16 09:50:11;;;;;;;1.25;1.00;;;;;;;5.87;75.85;98023.81;5034350;28;20068;-74
2023/01/16 09:58:35;;;;;;;2.55;0.90;;;;;;;5.86;76.12;98017.50;5050170;28;20040;-70
2023/01/16 10:01:06;;;;;;;1.40;1.00;;;;;;;5.86;75.50;98008.41;5045539;28;20400;-74
2023/01/16 10:03:32;;;;;;;0.90;0.90;;;;;;;5.85;75.76;98009.50;5046184;28;20435;-74
2023/01/16 10:06:24;;;;;;;1.80;1.00;;;;;;;5.86;75.86;97998.22;5048486;28;20102;-74
2023/01/16 10:09:19;;;;;;;1.75;1.00;;;;;;;5.91;75.88;97995.41;5027492;28;20055;-71
2023/01/16 10:11:59;;;;;;;2.13;0.90;;;;;;;5.92;75.22;97985.22;5044923;28;20033;-70
2023/01/16 10:14:35;;;;;;;2.03;1.00;;;;;;;5.93;75.50;97980.53;5051759;28;20069;-69
2023/01/16 10:17:12;;;;;;;1.75;0.90;;;;;;;5.97;75.70;97976.91;5050123;28;20021;-70
2023/01/16 10:20:02;;;;;;;1.10;1.00;;;;;;;5.99;74.94;97969.19;5047616;28;20396;-74
2023/01/16 10:22:27;;;;;;;1.00;1.00;;;;;;;6.03;75.17;97961.16;5050534;28;20033;-68
2023/01/16 10:25:13;;;;;;;1.55;0.98;;;;;;;6.09;75.34;97951.72;5052480;28;20503;-68
2023/01/16 10:27:52;;;;;;;1.30;1.20;;;;;;;6.10;74.98;97959.69;5040904;28;20044;-69
2023/01/16 10:30:31;;;;;;;1.02;0.93;;;;;;;6.12;75.28;97954.69;5054295;28;20058;-66
2023/01/16 10:33:45;;;;;;;2.50;1.08;;;;;;;6.13;74.55;97945.34;5051730;28;20097;-69
2023/01/16 10:36:14;;;;;;;1.75;1.02;;;;;;;6.09;74.98;97941.53;4973099;28;20043;-71
2023/01/16 10:38:51;;;;;;;1.20;1.00;;;;;;;6.14;74.92;97933.19;4971491;28;20078;-71
2023/01/16 10:50:04;;;;;;;1.77;1.20;;;;;;;6.25;75.20;97925.63;5044644;28;20083;-71
2023/01/16 10:52:31;;;;;;;1.25;1.10;;;;;;;6.25;74.10;97911.00;5049461;28;20037;-72
2023/01/16 10:54:58;;;;;;;1.73;1.05;;;;;;;6.23;74.52;97908.56;5050603;28;20070;-72
2023/01/16 10:57:24;;;;;;;2.25;1.20;;;;;;;6.23;74.31;97900.31;5051913;28;20029;-72
2023/01/16 10:59:52;;;;;;;1.35;1.00;;;;;;;6.23;74.19;97883.78;5050455;28;20113;-71
2023/01/16 11:02:30;;;;;;;1.55;1.10;;;;;;;6.25;73.98;97891.72;5047773;28;20079;-70
2023/01/16 11:04:56;;;;;;;1.63;1.05;;;;;;;6.24;74.01;97887.34;5039861;28;20055;-74
2023/01/16 11:07:22;;;;;;;1.52;1.20;;;;;;;6.22;73.52;97879.41;5043334;28;20072;-72
2023/01/16 11:09:47;;;;;;;1.25;1.00;;;;;;;6.22;73.60;97871.13;5050290;28;20534;-73
2023/01/16 11:18:33;;;;;;;1.00;0.90;;;;;;;6.30;73.99;97856.69;5050338;28;20834;-70
2023/01/16 11:21:27;;;;;;;2.63;1.25;;;;;;;6.32;73.60;97842.59;5050027;28;20048;-71
2023/01/16 11:24:30;;;;;;;1.55;0.90;;;;;;;6.33;74.22;97827.75;5041794;28;20549;-70
2023/01/16 11:26:58;;;;;;;1.25;0.80;;;;;;;6.32;73.47;97835.16;5011199;28;20049;-70
2023/01/16 11:29:28;;;;;;;1.08;0.95;;;;;;;6.34;73.78;97821.91;5032913;28;20057;-64
2023/01/16 11:31:57;;;;;;;1.00;0.90;;;;;;;6.37;73.08;97821.31;5036414;28;20029;-65
2023/01/16 11:34:26;;;;;;;0.73;0.73;;;;;;;6.38;73.35;97813.88;5049431;28;20025;-64
2023/01/16 11:36:54;;;;;;;2.55;1.20;;;;;;;6.37;72.47;97812.25;5045693;28;20400;-64
2023/01/16 11:39:24;;;;;;;2.25;1.08;;;;;;;6.35;72.59;97803.44;5045004;28;20036;-71
2023/01/16 11:41:52;;;;;;;4.35;1.20;;;;;;;6.37;73.73;97799.28;5046683;28;20095;-72
2023/01/16 11:47:21;;;;;;;1.20;1.00;;;;;;;6.42;73.81;97786.53;5042331;28;20075;-69
2023/01/16 11:49:49;;;;;;;1.75;1.20;;;;;;;6.40;73.27;97781.31;5050740;28;20021;-76
2023/01/16 11:52:26;;;;;;;1.38;1.00;;;;;;;6.43;73.09;97780.72;5033514;28;20037;-72
2023/01/16 11:55:00;;;;;;;1.40;1.05;;;;;;;6.44;72.94;97779.59;5051004;28;20541;-75
2023/01/16 11:57:44;;;;;;;1.13;0.90;;;;;;;6.47;73.13;97769.91;5043816;28;20040;-75
2023/01/16 12:00:19;;;;;;;1.63;1.27;;;;;;;6.46;73.01;97763.59;5051894;28;20041;-75
2023/01/16 12:03:09;;;;;;;1.25;1.10;;;;;;;6.47;73.45;97764.41;5044938;28;20049;-76
2023/01/16 12:05:58;;;;;;;1.90;1.00;;;;;;;6.51;73.52;97748.91;5041181;28;20041;-75
2023/01/16 12:08:49;;;;;;;1.08;1.00;;;;;;;6.48;73.69;97750.31;5018717;28;20037;-74
2023/01/16 12:11:33;;;;;;;3.40;1.23;;;;;;;6.51;74.06;97746.97;5048091;28;20037;-72
2023/01/16 12:14:32;;;;;;;1.42;1.25;;;;;;;6.50;73.97;97728.81;5039701;28;20033;-72
2023/01/16 12:17:16;;;;;;;2.00;1.20;;;;;;;6.49;74.44;97724.44;5038412;28;20033;-71
2023/01/16 12:19:59;;;;;;;1.30;1.20;;;;;;;6.46;74.30;97719.50;5044188;28;20036;-70
2023/01/16 12:22:40;;;;;;;;;;;;;;;6.57;74.26;97720.97;5048559;28;20052;-71
2023/01/16 12:25:34;;;;;;;2.10;1.00;;;;;;;6.54;74.24;97724.31;5044184;28;19943;-71
2023/01/16 12:28:11;;;;;;;1.40;1.00;;;;;;;6.56;74.44;97713.00;5050869;28;20419;-70
2023/01/16 12:30:56;;;;;;;1.05;0.93;;;;;;;6.59;73.96;97707.69;5042593;28;20476;-73
2023/01/16 12:33:39;;;;;;;0.93;0.88;;;;;;;6.56;73.87;97697.28;5033834;28;20122;-73
2023/01/16 12:36:23;;;;;;;1.00;0.80;;;;;;;6.57;73.67;97695.34;5048455;28;20033;-71
2023/01/16 12:39:05;;;;;;;1.63;1.13;;;;;;;6.53;72.73;97697.91;5049248;28;20381;-72
2023/01/16 12:44:49;;;;;;;0.93;0.80;;;;;;;6.52;73.04;97679.72;5042348;28;20176;-70
2023/01/16 12:47:36;;;;;;;0.80;0.80;;;;;;;6.50;73.27;97673.69;5044382;28;20492;-70
2023/01/16 12:50:34;;;;;;;0.77;0.70;;;;;;;6.51;72.71;97664.31;5042070;28;20041;-69
2023/01/16 12:53:17;;;;;;;1.50;0.80;;;;;;;6.51;72.77;97661.56;5046937;28;20381;-69